Time;durP1;ratioP1;P1;durP2;ratioP2;P2;SDS_P1;SDS_P2;PMS_P1;PMS_P2;Temp;Humidity;BMP_temperature;BMP_pressure;BME280_temperature;BME280_humidity;BME280_pressure;Samples;Min_cycle;Max_cycle;Signal;HPM_P1;HPM_P2
2023/10/06 00:00:47;;;;;;;;;;;12.00;99.90;;;;;;5081349;28;19966;-75
2023/10/06 00:03:16;;;;;;;;;;;11.90;99.90;;;;;;5072903;28;19967;-73
2023/10/06 00:05:48;;;;;;;;;;;12.00;99.90;;;;;;5072180;28;19962;-75
2023/10/06 00:08:17;;;;;;;;;;;12.00;99.90;;;;;;5072669;28;19966;-74
2023/10/06 00:10:46;;;;;;;;;;;12.00;99.90;;;;;;5073540;28;20020;-74
2023/10/06 00:13:18;;;;;;;;;;;12.10;99.90;;;;;;5073755;28;19966;-75
2023/10/06 00:15:49;;;;;;;;;;;12.00;99.90;;;;;;5080579;28;19966;-75
2023/10/06 00:18:19;;;;;;;;;;;12.00;99.90;;;;;;5080815;28;19967;-76
2023/10/06 00:20:49;;;;;;;;;;;12.00;99.90;;;;;;5075266;28;20322;-78
2023/10/06 00:23:21;;;;;;;;;;;12.00;99.90;;;;;;5077980;28;19969;-78
2023/10/06 00:25:51;;;;;;;;;;;12.00;99.90;;;;;;5073901;28;20448;-78
2023/10/06 00:28:21;;;;;;;;;;;12.10;99.90;;;;;;5077808;28;19967;-77
2023/10/06 00:30:55;;;;;;;;;;;12.00;99.90;;;;;;5080470;28;19977;-72
2023/10/06 00:33:24;;;;;;;;;;;12.00;99.90;;;;;;5072273;28;19966;-74
2023/10/06 00:35:53;;;;;;;;;;;12.10;99.90;;;;;;5086957;28;19967;-75
2023/10/06 00:38:22;;;;;;;;;;;12.10;99.90;;;;;;5080570;28;20016;-74
2023/10/06 00:40:53;;;;;;;;;;;12.10;99.90;;;;;;5071785;28;20355;-77
2023/10/06 00:43:34;;;;;;;;;;;12.10;99.90;;;;;;5071908;28;20547;-74
2023/10/06 00:46:06;;;;;;;;;;;12.10;99.90;;;;;;5080123;28;19962;-75
2023/10/06 00:48:39;;;;;;;;;;;12.10;99.90;;;;;;5071955;28;19970;-77
2023/10/06 00:51:12;;;;;;;;;;;12.10;99.90;;;;;;5066171;28;19962;-79
2023/10/06 00:53:40;;;;;;;;;;;12.00;99.90;;;;;;5080214;28;19962;-74
2023/10/06 00:56:14;;;;;;;;;;;12.00;99.90;;;;;;5079943;28;19985;-73
2023/10/06 00:58:43;;;;;;;;;;;12.00;99.90;;;;;;5080769;28;20390;-77
2023/10/06 01:01:13;;;;;;;;;;;11.90;99.90;;;;;;5083658;28;19969;-78
2023/10/06 01:03:42;;;;;;;;;;;11.90;99.90;;;;;;5074506;28;19962;-74
2023/10/06 01:06:14;;;;;;;;;;;11.90;99.90;;;;;;5079362;28;20362;-74
2023/10/06 01:08:45;;;;;;;;;;;12.00;99.90;;;;;;5072816;28;20448;-74
2023/10/06 01:11:17;;;;;;;;;;;11.90;99.90;;;;;;5078833;28;19967;-74
2023/10/06 01:13:55;;;;;;;;;;;11.90;99.90;;;;;;5068834;28;19963;-73
2023/10/06 01:16:24;;;;;;;;;;;11.90;99.90;;;;;;5071312;28;19962;-74
2023/10/06 01:18:59;;;;;;;;;;;11.90;99.90;;;;;;5071326;28;20451;-78
2023/10/06 01:21:29;;;;;;;;;;;11.90;99.90;;;;;;5076075;28;20001;-73
2023/10/06 01:24:03;;;;;;;;;;;11.90;99.90;;;;;;5078786;28;20065;-73
2023/10/06 01:26:31;;;;;;;;;;;11.90;99.90;;;;;;5074769;28;20002;-74
2023/10/06 01:28:59;;;;;;;;;;;11.80;99.90;;;;;;5073908;28;19966;-76
2023/10/06 01:31:26;;;;;;;;;;;11.80;99.90;;;;;;5076745;28;19963;-77
2023/10/06 01:33:55;;;;;;;;;;;11.90;99.90;;;;;;5071010;28;19968;-73
2023/10/06 01:36:24;;;;;;;;;;;11.90;99.90;;;;;;5070771;28;19963;-74
2023/10/06 01:38:53;;;;;;;;;;;11.80;99.90;;;;;;5072827;28;20425;-73
2023/10/06 01:41:26;;;;;;;;;;;11.70;99.90;;;;;;5082573;28;20389;-73
2023/10/06 01:43:53;;;;;;;;;;;11.70;99.90;;;;;;5071452;28;20036;-75
2023/10/06 01:46:24;;;;;;;;;;;11.70;99.90;;;;;;5079185;28;20062;-74
2023/10/06 01:48:52;;;;;;;;;;;11.70;99.90;;;;;;5079816;28;20442;-73
2023/10/06 01:51:22;;;;;;;;;;;11.70;99.90;;;;;;5079254;28;19969;-77
2023/10/06 01:53:50;;;;;;;;;;;11.80;99.90;;;;;;5079321;28;19966;-73
2023/10/06 01:56:22;;;;;;;;;;;11.70;99.90;;;;;;5079182;28;19963;-74
2023/10/06 01:58:51;;;;;;;;;;;11.70;99.90;;;;;;5075930;28;20163;-73
2023/10/06 02:01:20;;;;;;;;;;;11.70;99.90;;;;;;5077733;28;19966;-73
2023/10/06 02:03:54;;;;;;;;;;;11.80;99.90;;;;;;5072785;28;20010;-72
2023/10/06 02:06:25;;;;;;;;;;;11.80;99.90;;;;;;5072040;28;20375;-75
2023/10/06 02:08:54;;;;;;;;;;;11.80;99.90;;;;;;5070854;28;20425;-73
2023/10/06 02:11:28;;;;;;;;;;;11.80;99.90;;;;;;5075543;28;20440;-73
2023/10/06 02:13:57;;;;;;;;;;;11.80;99.90;;;;;;5070367;28;19988;-73
2023/10/06 02:16:27;;;;;;;;;;;11.70;99.90;;;;;;5076434;28;19962;-73
2023/10/06 02:18:55;;;;;;;;;;;11.80;99.90;;;;;;5081026;28;19966;-73
2023/10/06 02:21:24;;;;;;;;;;;11.80;99.90;;;;;;5070773;28;19963;-73
2023/10/06 02:23:52;;;;;;;;;;;11.80;99.90;;;;;;5070549;28;19962;-75
2023/10/06 02:26:20;;;;;;;;;;;11.80;99.90;;;;;;5070210;28;19963;-73
2023/10/06 02:28:51;;;;;;;;;;;11.70;99.90;;;;;;5071165;28;19970;-74
2023/10/06 02:31:21;;;;;;;;;;;11.80;99.90;;;;;;5082624;28;19962;-73
2023/10/06 02:33:51;;;;;;;;;;;11.70;99.90;;;;;;5074460;28;20461;-75
2023/10/06 02:36:21;;;;;;;;;;;11.70;99.90;;;;;;5087583;28;19986;-72
2023/10/06 02:38:50;;;;;;;;;;;11.70;99.90;;;;;;5074989;28;20491;-72
2023/10/06 02:41:25;;;;;;;;;;;11.70;99.90;;;;;;5081698;28;20031;-73
2023/10/06 02:43:54;;;;;;;;;;;11.60;99.90;;;;;;5075173;28;20067;-72
2023/10/06 02:46:25;;;;;;;;;;;11.60;99.90;;;;;;5080840;28;19962;-72
2023/10/06 02:48:53;;;;;;;;;;;11.60;99.90;;;;;;5082410;28;19971;-73
2023/10/06 02:51:28;;;;;;;;;;;11.70;99.90;;;;;;5082250;28;20023;-73
2023/10/06 02:54:13;;;;;;;;;;;11.70;99.90;;;;;;5082611;28;19966;-72
2023/10/06 02:56:43;;;;;;;;;;;11.70;99.90;;;;;;5081379;28;19965;-72
2023/10/06 02:59:20;;;;;;;;;;;11.70;99.90;;;;;;5077345;28;19966;-72
2023/10/06 03:01:54;;;;;;;;;;;11.70;99.90;;;;;;5077371;28;19966;-78
2023/10/06 03:04:25;;;;;;;;;;;11.60;99.90;;;;;;5073996;28;20425;-74
2023/10/06 03:06:55;;;;;;;;;;;11.60;99.90;;;;;;5081753;28;20384;-73
2023/10/06 03:09:28;;;;;;;;;;;11.60;99.90;;;;;;5073958;28;19966;-73
2023/10/06 03:11:59;;;;;;;;;;;11.60;99.90;;;;;;5073587;28;20498;-72
2023/10/06 03:14:38;;;;;;;;;;;11.60;99.90;;;;;;5073960;28;20479;-72
2023/10/06 03:17:08;;;;;;;;;;;11.70;99.90;;;;;;5081749;28;20429;-72
2023/10/06 03:19:40;;;;;;;;;;;11.70;99.90;;;;;;5078044;28;20322;-72
2023/10/06 03:22:09;;;;;;;;;;;11.60;99.90;;;;;;5076128;28;20370;-75
2023/10/06 03:24:44;;;;;;;;;;;11.60;99.90;;;;;;5078434;28;19974;-71
2023/10/06 03:27:14;;;;;;;;;;;11.60;99.90;;;;;;5073051;28;20016;-72
2023/10/06 03:29:47;;;;;;;;;;;11.50;99.90;;;;;;5081098;28;19985;-72
2023/10/06 03:32:27;;;;;;;;;;;11.50;99.90;;;;;;5073516;28;19970;-73
2023/10/06 03:34:57;;;;;;;;;;;11.50;99.90;;;;;;5076636;28;20013;-73
2023/10/06 03:37:37;;;;;;;;;;;11.50;99.90;;;;;;5077848;28;19969;-77
2023/10/06 03:40:21;;;;;;;;;;;11.60;99.90;;;;;;5074869;28;20077;-73
2023/10/06 03:42:49;;;;;;;;;;;11.60;99.90;;;;;;5073383;28;19962;-72
2023/10/06 03:45:26;;;;;;;;;;;11.50;99.90;;;;;;5076229;28;20391;-73
2023/10/06 03:48:08;;;;;;;;;;;11.60;99.90;;;;;;5075929;28;19974;-73
2023/10/06 03:50:38;;;;;;;;;;;11.50;99.90;;;;;;5073033;28;19966;-73
2023/10/06 03:53:11;;;;;;;;;;;11.40;99.90;;;;;;5081311;28;20061;-72
2023/10/06 03:55:40;;;;;;;;;;;11.50;99.90;;;;;;5072706;28;19973;-73
2023/10/06 03:58:08;;;;;;;;;;;11.40;99.90;;;;;;5080896;28;20005;-72
2023/10/06 04:00:40;;;;;;;;;;;11.50;99.90;;;;;;5072905;28;19967;-73
2023/10/06 04:03:13;;;;;;;;;;;11.50;99.90;;;;;;5081299;28;19967;-73
2023/10/06 04:05:44;;;;;;;;;;;11.40;99.90;;;;;;5079438;28;19973;-74
2023/10/06 04:08:15;;;;;;;;;;;11.40;99.90;;;;;;5075575;28;19971;-73
2023/10/06 04:10:44;;;;;;;;;;;11.30;99.90;;;;;;5077855;28;20016;-74
2023/10/06 04:13:14;;;;;;;;;;;11.30;99.90;;;;;;5075474;28;19967;-71
2023/10/06 04:15:43;;;;;;;;;;;11.30;99.90;;;;;;5079089;28;20069;-71
2023/10/06 04:18:16;;;;;;;;;;;11.30;99.90;;;;;;5073551;28;20081;-77
2023/10/06 04:20:45;;;;;;;;;;;11.40;99.90;;;;;;5077414;28;19962;-72
2023/10/06 04:23:14;;;;;;;;;;;11.40;99.90;;;;;;5061008;28;20075;-75
2023/10/06 04:25:42;;;;;;;;;;;11.40;99.90;;;;;;5060868;28;19970;-75
2023/10/06 04:28:13;;;;;;;;;;;11.30;99.90;;;;;;5060430;28;19981;-77
2023/10/06 04:30:42;;;;;;;;;;;11.20;99.90;;;;;;5060011;28;19971;-73
2023/10/06 04:33:11;;;;;;;;;;;11.30;99.90;;;;;;5060849;28;20089;-77
2023/10/06 04:35:42;;;;;;;;;;;11.20;99.90;;;;;;5060075;28;20401;-78
2023/10/06 04:38:12;;;;;;;;;;;11.20;99.90;;;;;;5060392;28;20487;-77
2023/10/06 04:40:40;;;;;;;;;;;11.20;99.90;;;;;;5059753;28;20001;-74
2023/10/06 04:43:08;;;;;;;;;;;11.20;99.90;;;;;;5060331;28;20065;-78
2023/10/06 04:45:38;;;;;;;;;;;11.10;99.90;;;;;;5060864;28;19970;-76
2023/10/06 04:48:07;;;;;;;;;;;11.10;99.90;;;;;;5060319;28;19967;-78
2023/10/06 04:50:35;;;;;;;;;;;11.00;99.90;;;;;;5058582;28;19985;-75
2023/10/06 04:53:06;;;;;;;;;;;11.10;99.90;;;;;;5060026;28;19975;-74
2023/10/06 04:55:37;;;;;;;;;;;11.10;99.90;;;;;;5060678;28;19966;-77
2023/10/06 04:58:06;;;;;;;;;;;11.10;99.90;;;;;;5060308;28;19990;-79
2023/10/06 05:00:34;;;;;;;;;;;11.10;99.90;;;;;;5058593;28;19998;-76
2023/10/06 05:03:06;;;;;;;;;;;11.20;99.90;;;;;;5060742;28;20445;-79
2023/10/06 05:05:37;;;;;;;;;;;11.10;99.90;;;;;;5060319;28;20002;-81
2023/10/06 05:08:09;;;;;;;;;;;11.10;99.90;;;;;;5060070;28;19970;-75
2023/10/06 05:10:39;;;;;;;;;;;11.10;99.90;;;;;;5060235;28;20509;-76
2023/10/06 05:13:07;;;;;;;;;;;11.10;99.90;;;;;;5059764;28;19971;-78
2023/10/06 05:15:36;;;;;;;;;;;11.10;99.90;;;;;;5060524;28;19970;-75
2023/10/06 05:18:06;;;;;;;2.53;1.55;;;11.00;99.90;;;;;;5059241;28;19998;-73
2023/10/06 05:20:35;;;;;;;2.97;1.90;;;11.00;99.90;;;;;;5058018;28;20261;-75
2023/10/06 05:23:07;;;;;;;1.45;1.35;;;11.10;99.90;;;;;;5059038;28;20216;-67
2023/10/06 05:25:37;;;;;;;2.13;1.30;;;11.00;99.90;;;;;;5059505;28;20234;-72
2023/10/06 05:28:07;;;;;;;1.65;1.23;;;11.00;99.90;;;;;;5059572;28;20272;-72
2023/10/06 05:30:36;;;;;;;3.50;1.67;;;11.00;99.90;;;;;;5057840;28;20191;-71
2023/10/06 05:33:05;;;;;;;2.35;1.35;;;11.00;99.90;;;;;;5059617;28;20218;-71
2023/10/06 05:35:38;;;;;;;1.48;1.38;;;10.90;99.90;;;;;;5059423;28;20238;-72
2023/10/06 05:38:08;;;;;;;3.63;2.15;;;10.80;99.90;;;;;;5059410;28;20207;-70
2023/10/06 05:40:37;;;;;;;1.60;1.50;;;10.80;99.90;;;;;;5057569;28;20210;-71
2023/10/06 05:43:05;;;;;;;2.78;1.52;;;10.80;99.90;;;;;;5059066;28;20262;-72
2023/10/06 05:45:33;;;;;;;2.80;1.75;;;10.80;99.90;;;;;;5059432;28;20223;-71
2023/10/06 05:48:06;;;;;;;2.22;2.03;;;10.70;99.90;;;;;;5059319;28;20273;-75
2023/10/06 05:50:35;;;;;;;2.00;1.80;;;10.70;99.90;;;;;;5057806;28;20203;-71
2023/10/06 05:53:07;;;;;;;1.58;1.48;;;10.80;99.90;;;;;;5059491;28;20215;-71
2023/10/06 05:55:37;;;;;;;1.75;1.60;;;10.80;99.90;;;;;;5059585;28;20236;-72
2023/10/06 05:58:09;;;;;;;2.15;1.90;;;10.80;99.90;;;;;;5058711;28;20580;-70
2023/10/06 06:00:43;;;;;;;4.05;1.80;;;10.80;99.90;;;;;;5057250;28;20222;-72
2023/10/06 06:03:13;;;;;;;2.40;1.95;;;10.90;99.90;;;;;;5059200;28;20206;-71
2023/10/06 06:05:41;;;;;;;1.95;1.80;;;10.90;99.90;;;;;;5068620;28;20219;-73
2023/10/06 06:08:10;;;;;;;2.38;1.83;;;11.00;99.90;;;;;;5069991;28;20673;-73
2023/10/06 06:10:40;;;;;;;3.42;1.80;;;10.90;99.90;;;;;;5078304;28;20202;-71
2023/10/06 06:13:08;;;;;;;3.63;1.83;;;10.90;99.90;;;;;;5076903;28;20214;-72
2023/10/06 06:15:39;;;;;;;2.22;2.03;;;10.90;99.90;;;;;;5074026;28;20587;-72
2023/10/06 06:18:13;;;;;;;2.92;2.03;;;10.90;99.90;;;;;;5082493;28;20229;-69
2023/10/06 06:20:42;;;;;;;1.67;1.58;;;10.90;99.90;;;;;;5077079;28;20202;-72
2023/10/06 06:23:12;;;;;;;1.80;1.70;;;11.00;99.90;;;;;;5093378;28;20206;-72
2023/10/06 06:25:42;;;;;;;1.92;1.60;;;11.10;99.90;;;;;;5070978;28;20231;-73
2023/10/06 06:28:12;;;;;;;1.90;1.75;;;11.10;99.90;;;;;;5074124;28;20220;-73
2023/10/06 06:30:41;;;;;;;2.10;1.70;;;11.20;99.90;;;;;;5073944;28;20207;-73
2023/10/06 06:33:12;;;;;;;6.35;2.17;;;11.30;99.90;;;;;;5073600;28;20749;-70
2023/10/06 06:35:42;;;;;;;3.13;1.90;;;11.40;99.90;;;;;;5078312;28;20222;-73
2023/10/06 06:38:12;;;;;;;4.63;2.75;;;11.50;99.90;;;;;;5076563;28;20211;-70
2023/10/06 06:40:43;;;;;;;2.63;2.10;;;11.40;99.90;;;;;;5074137;28;20203;-73
2023/10/06 06:43:11;;;;;;;6.88;2.42;;;11.40;99.90;;;;;;5073386;28;20729;-72
2023/10/06 06:45:40;;;;;;;5.07;2.80;;;11.40;99.90;;;;;;5078146;28;20206;-72
2023/10/06 06:48:12;;;;;;;1.90;1.77;;;11.50;99.90;;;;;;5076643;28;20280;-72
2023/10/06 06:50:42;;;;;;;3.58;2.20;;;11.60;99.90;;;;;;5066281;28;20226;-73
2023/10/06 06:53:11;;;;;;;2.95;2.00;;;11.60;99.90;;;;;;5073416;28;20215;-71
2023/10/06 06:55:39;;;;;;;4.70;2.38;;;11.50;99.90;;;;;;5073561;28;20223;-73
2023/10/06 06:58:11;;;;;;;3.50;2.15;;;11.40;99.90;;;;;;5073045;28;20207;-74
2023/10/06 07:00:40;;;;;;;2.65;2.00;;;11.30;99.90;;;;;;5065849;28;20203;-73
2023/10/06 07:03:10;;;;;;;2.20;2.00;;;11.30;99.90;;;;;;5073457;28;20203;-73
2023/10/06 07:05:39;;;;;;;3.83;1.90;;;11.40;99.90;;;;;;5065476;28;20215;-73
2023/10/06 07:08:08;;;;;;;2.63;1.75;;;11.50;99.90;;;;;;5081397;28;20241;-70
2023/10/06 07:10:38;;;;;;;2.85;2.38;;;11.70;99.90;;;;;;5073354;28;20205;-72
2023/10/06 07:13:07;;;;;;;2.67;2.33;;;11.60;99.90;;;;;;5073216;28;20214;-70
2023/10/06 07:15:36;;;;;;;3.33;2.90;;;11.80;99.90;;;;;;5084326;28;20280;-73
2023/10/06 07:18:05;;;;;;;2.20;2.00;;;12.00;99.90;;;;;;5077315;28;20218;-71
2023/10/06 07:20:33;;;;;;;6.85;2.75;;;12.10;99.90;;;;;;5071640;28;20199;-73
2023/10/06 07:23:01;;;;;;;2.35;2.10;;;12.20;99.90;;;;;;5080978;28;20210;-72
2023/10/06 07:25:29;;;;;;;3.13;2.65;;;12.30;99.90;;;;;;5080949;28;20237;-73
2023/10/06 07:27:58;;;;;;;4.63;2.40;;;12.40;99.90;;;;;;5073113;28;20203;-73
2023/10/06 07:30:29;;;;;;;8.07;2.65;;;12.50;99.90;;;;;;5072902;28;20215;-73
2023/10/06 07:32:58;;;;;;;3.13;1.70;;;12.60;99.90;;;;;;5072821;28;20207;-73
2023/10/06 07:35:37;;;;;;;3.05;2.35;;;12.70;99.90;;;;;;5072611;28;20607;-74
2023/10/06 07:38:05;;;;;;;4.85;2.03;;;12.90;99.90;;;;;;5079452;28;20229;-72
2023/10/06 07:40:33;;;;;;;5.50;2.80;;;13.00;99.90;;;;;;5073315;28;20264;-73
2023/10/06 07:43:04;;;;;;;2.33;2.05;;;13.20;99.90;;;;;;5072649;28;20211;-73
2023/10/06 07:45:32;;;;;;;6.60;3.20;;;13.20;99.90;;;;;;5074993;28;20597;-73
2023/10/06 07:48:05;;;;;;;2.38;2.17;;;13.20;99.90;;;;;;5077788;28;20210;-73
2023/10/06 07:50:34;;;;;;;2.60;2.40;;;13.30;99.90;;;;;;5072529;28;20203;-73
2023/10/06 07:53:03;;;;;;;2.25;2.05;;;13.40;99.90;;;;;;5072562;28;20252;-73
2023/10/06 07:55:31;;;;;;;2.88;2.63;;;13.50;99.90;;;;;;5080227;28;20638;-73
2023/10/06 07:58:00;;;;;;;3.42;2.65;;;13.60;99.90;;;;;;5080466;28;20254;-73
2023/10/06 08:00:29;;;;;;;2.72;2.15;;;13.70;99.90;;;;;;5071872;28;20207;-73
2023/10/06 08:02:59;;;;;;;3.38;2.70;;;13.80;99.90;;;;;;5072382;28;20626;-73
2023/10/06 08:05:29;;;;;;;2.70;2.50;;;14.00;99.90;;;;;;5072588;28;20223;-73
2023/10/06 08:07:58;;;;;;;4.82;3.15;;;14.20;99.90;;;;;;5072172;28;20576;-73
2023/10/06 08:10:29;;;;;;;3.90;3.25;;;14.40;99.90;;;;;;5080456;28;20565;-72
2023/10/06 08:13:01;;;;;;;8.18;3.25;;;14.50;99.90;;;;;;5077641;28;20218;-73
2023/10/06 08:15:32;;;;;;;4.18;3.42;;;14.80;99.90;;;;;;5081848;28;20314;-73
2023/10/06 08:18:01;;;;;;;2.50;1.67;;;14.90;99.90;;;;;;5072021;28;20254;-73
2023/10/06 08:20:31;;;;;;;3.40;2.22;;;14.90;99.90;;;;;;5071607;28;20297;-73
2023/10/06 08:22:59;;;;;;;2.70;2.10;;;15.10;99.90;;;;;;5071996;28;20236;-73
2023/10/06 08:25:29;;;;;;;5.00;2.03;;;15.40;99.90;;;;;;5071267;28;20656;-74
2023/10/06 08:28:07;;;;;;;4.30;1.60;;;15.70;99.90;;;;;;5071789;28;20677;-70
2023/10/06 08:30:37;;;;;;;4.38;1.67;;;16.10;99.90;;;;;;5079633;28;20238;-73
2023/10/06 08:33:08;;;;;;;4.97;2.28;;;16.50;99.90;;;;;;5071487;28;20558;-71
2023/10/06 08:35:40;;;;;;;1.45;1.17;;;16.60;99.90;;;;;;5071500;28;20576;-73
2023/10/06 08:38:09;;;;;;;2.38;2.17;;;16.70;99.90;;;;;;5071428;28;20318;-73
2023/10/06 08:40:41;;;;;;;2.50;2.17;;;16.80;99.90;;;;;;5071115;28;20211;-74
2023/10/06 08:43:10;;;;;;;4.25;2.35;;;17.00;99.90;;;;;;5071333;28;20231;-73
2023/10/06 08:45:41;;;;;;;3.85;1.98;;;17.00;99.90;;;;;;5070816;28;20227;-72
2023/10/06 08:48:13;;;;;;;3.53;2.05;;;17.00;99.90;;;;;;5071397;28;20203;-73
2023/10/06 08:50:45;;;;;;;2.45;2.00;;;17.30;99.90;;;;;;5071144;28;20207;-72
2023/10/06 08:53:15;;;;;;;2.90;2.70;;;17.20;99.90;;;;;;5071424;28;20560;-73
2023/10/06 08:55:44;;;;;;;3.00;2.10;;;17.20;99.90;;;;;;5070874;28;20237;-72
2023/10/06 08:58:14;;;;;;;2.80;1.95;;;17.50;99.90;;;;;;5070934;28;20708;-73
2023/10/06 09:00:43;;;;;;;2.50;2.30;;;17.50;99.90;;;;;;5071159;28;20620;-72
2023/10/06 09:03:14;;;;;;;3.92;2.45;;;17.50;99.90;;;;;;5077850;28;20264;-73
2023/10/06 09:05:45;;;;;;;2.60;2.40;;;17.50;99.90;;;;;;5071496;28;20293;-73
2023/10/06 09:08:14;;;;;;;4.40;2.50;;;17.80;99.90;;;;;;5070930;28;20206;-73
2023/10/06 09:10:44;;;;;;;3.65;2.60;;;17.90;99.90;;;;;;5071077;28;20214;-73
2023/10/06 09:13:15;;;;;;;3.25;2.45;;;18.10;99.90;;;;;;5071051;28;20298;-73
2023/10/06 09:15:55;;;;;;;5.07;2.42;;;18.20;99.90;;;;;;5079192;28;20231;-73
2023/10/06 09:18:27;;;;;;;2.50;2.28;;;18.20;99.90;;;;;;5070074;28;20227;-73
2023/10/06 09:21:10;;;;;;;3.90;2.55;;;18.10;99.90;;;;;;5070904;28;20215;-73
2023/10/06 09:23:40;;;;;;;3.65;2.72;;;18.30;99.90;;;;;;5070844;28;20257;-73
2023/10/06 09:26:11;;;;;;;4.38;3.90;;;18.30;99.90;;;;;;5076799;28;20337;-73
2023/10/06 09:28:50;;;;;;;2.80;2.20;;;18.30;99.90;;;;;;5072005;28;20199;-73
2023/10/06 09:31:34;;;;;;;3.50;2.38;;;18.40;99.90;;;;;;5070871;28;20573;-74
2023/10/06 09:34:05;;;;;;;12.73;3.53;;;18.70;99.90;;;;;;5070602;28;20208;-73
2023/10/06 09:36:35;;;;;;;4.45;3.67;;;18.90;99.90;;;;;;5078745;28;20308;-73
2023/10/06 09:39:17;;;;;;;4.90;3.67;;;18.90;99.90;;;;;;5070635;28;20227;-74
2023/10/06 09:41:47;;;;;;;7.97;2.85;;;19.00;99.90;;;;;;5078939;28;20211;-73
2023/10/06 09:44:19;;;;;;;4.15;3.13;;;19.00;99.90;;;;;;5069920;28;20203;-73
2023/10/06 09:46:53;;;;;;;7.07;3.88;;;19.20;99.90;;;;;;5070489;28;20256;-71
2023/10/06 09:49:22;;;;;;;4.85;3.58;;;19.30;99.90;;;;;;5070124;28;20206;-73
2023/10/06 09:51:53;;;;;;;3.33;2.88;;;19.10;99.90;;;;;;5073592;28;20233;-73
2023/10/06 09:54:21;;;;;;;4.95;3.00;;;19.10;99.90;;;;;;5074777;28;20235;-70
2023/10/06 09:56:54;;;;;;;3.70;3.40;;;19.20;99.90;;;;;;5081920;28;20289;-70
2023/10/06 09:59:24;;;;;;;4.22;2.80;;;19.20;99.90;;;;;;5082245;28;20280;-73
2023/10/06 10:01:54;;;;;;;4.95;3.08;;;19.20;99.90;;;;;;5066122;28;20210;-71
2023/10/06 10:04:25;;;;;;;3.85;2.50;;;19.20;99.90;;;;;;5066259;28;20216;-73
2023/10/06 10:06:55;;;;;;;2.08;1.88;;;19.40;99.90;;;;;;5062487;28;20237;-73
2023/10/06 10:09:24;;;;;;;4.45;2.80;;;19.80;99.90;;;;;;5078149;28;20271;-73
2023/10/06 10:12:04;;;;;;;4.25;2.35;;;20.10;99.90;;;;;;5070408;28;20289;-73
2023/10/06 10:14:51;;;;;;;3.33;2.90;;;20.10;99.90;;;;;;5070138;28;20211;-74
2023/10/06 10:17:29;;;;;;;4.18;3.40;;;20.30;99.90;;;;;;5078510;28;20673;-73
2023/10/06 10:19:58;;;;;;;3.13;2.70;;;20.60;99.90;;;;;;5062472;28;20234;-73
2023/10/06 10:22:31;;;;;;;3.78;2.88;;;20.50;99.90;;;;;;5070505;28;20570;-73
2023/10/06 10:25:01;;;;;;;4.43;2.83;;;20.70;99.90;;;;;;5062650;28;20280;-73
2023/10/06 10:27:33;;;;;;;4.00;2.63;;;21.00;99.90;;;;;;5078417;28;20735;-72
2023/10/06 10:30:09;;;;;;;2.92;2.33;;;21.00;99.90;;;;;;5078538;28;20218;-74
2023/10/06 10:32:42;;;;;;;3.80;2.88;;;21.00;99.90;;;;;;5078335;28;20213;-73
2023/10/06 10:35:16;;;;;;;3.30;2.75;;;21.00;99.90;;;;;;5078624;28;20276;-72
2023/10/06 10:37:57;;;;;;;3.50;2.65;;;21.10;99.90;;;;;;5080195;28;20724;-73
2023/10/06 10:40:31;;;;;;;3.47;2.65;;;21.00;99.90;;;;;;5073623;28;20257;-72
2023/10/06 10:43:05;;;;;;;3.17;2.80;;;20.90;99.90;;;;;;5070006;28;20208;-73
2023/10/06 10:45:43;;;;;;;3.75;2.80;;;20.90;99.90;;;;;;5069990;28;20314;-71
2023/10/06 10:48:14;;;;;;;3.67;2.65;;;21.10;99.90;;;;;;5072864;28;20203;-73
2023/10/06 10:51:05;;;;;;;4.53;2.40;;;21.20;99.90;;;;;;5078244;28;20214;-73
2023/10/06 10:53:36;;;;;;;7.40;3.80;;;21.40;99.90;;;;;;5078558;28;20245;-70
2023/10/06 10:56:06;;;;;;;5.00;3.10;;;21.60;99.90;;;;;;5072498;28;20230;-74
2023/10/06 10:58:57;;;;;;;5.60;2.97;;;21.60;99.90;;;;;;5081647;28;20223;-74
2023/10/06 11:01:31;;;;;;;3.88;2.25;;;21.80;99.90;;;;;;5073546;28;20205;-73
2023/10/06 11:04:21;;;;;;;5.60;3.88;;;22.00;99.90;;;;;;5065468;28;20676;-73
2023/10/06 11:06:50;;;;;;;6.25;3.40;;;21.70;99.90;;;;;;5083728;28;20285;-71
2023/10/06 11:09:30;;;;;;;3.55;3.13;;;21.60;99.90;;;;;;5077731;28;20282;-74
2023/10/06 11:11:59;;;;;;;4.93;4.05;;;21.60;99.90;;;;;;5079175;28;20207;-72
2023/10/06 11:14:49;;;;;;;4.15;3.08;;;21.60;99.90;;;;;;5074777;28;20713;-73
2023/10/06 11:17:22;;;;;;;4.13;3.75;;;21.80;99.90;;;;;;5078766;28;20199;-73
2023/10/06 11:20:01;;;;;;;4.53;3.58;;;22.00;99.90;;;;;;5075002;28;20639;-73
2023/10/06 11:22:33;;;;;;;4.85;3.03;;;22.00;99.90;;;;;;5077070;28;20225;-73
2023/10/06 11:25:08;;;;;;;3.83;3.45;;;22.10;99.90;;;;;;5081249;28;20238;-72
2023/10/06 11:27:38;;;;;;;4.32;2.78;;;22.00;99.90;;;;;;5072984;28;20199;-73
2023/10/06 11:30:11;;;;;;;4.15;3.35;;;22.00;99.90;;;;;;5081130;28;20210;-73
2023/10/06 11:32:40;;;;;;;3.65;3.22;;;22.20;99.90;;;;;;5073432;28;20234;-73
2023/10/06 11:35:11;;;;;;;3.55;2.72;;;22.20;99.90;;;;;;5077612;28;20214;-73
2023/10/06 11:37:40;;;;;;;4.30;2.58;;;22.50;99.90;;;;;;5075658;28;20576;-72
2023/10/06 11:40:12;;;;;;;4.28;2.83;;;22.60;99.90;;;;;;5072674;28;20226;-73
2023/10/06 11:42:41;;;;;;;6.82;3.78;;;22.60;99.90;;;;;;5078759;28;20199;-73
2023/10/06 11:45:25;;;;;;;15.40;4.60;;;22.40;99.90;;;;;;5084317;28;20265;-73
2023/10/06 11:47:53;;;;;;;4.40;2.72;;;22.60;99.90;;;;;;5075861;28;20210;-73
2023/10/06 11:50:24;;;;;;;6.82;3.42;;;22.20;99.90;;;;;;5084134;28;20218;-72
2023/10/06 11:52:53;;;;;;;8.75;4.25;;;22.10;99.90;;;;;;5075786;28;20658;-73
2023/10/06 11:55:30;;;;;;;5.30;2.80;;;22.20;99.90;;;;;;5078280;28;20299;-73
2023/10/06 11:58:00;;;;;;;5.00;3.38;;;22.60;99.90;;;;;;5072413;28;20280;-73
2023/10/06 12:00:40;;;;;;;7.95;3.22;;;22.60;99.90;;;;;;5080782;28;20405;-72
2023/10/06 12:03:10;;;;;;;3.60;2.45;;;22.60;99.90;;;;;;5076497;28;20297;-73
2023/10/06 12:05:42;;;;;;;3.47;2.00;;;22.80;99.90;;;;;;5075262;28;20236;-70
2023/10/06 12:08:11;;;;;;;2.58;2.20;;;22.80;99.90;;;;;;5071558;28;20658;-73
2023/10/06 12:10:52;;;;;;;2.30;2.10;;;22.60;99.90;;;;;;5071939;28;20294;-71
2023/10/06 12:13:20;;;;;;;4.35;1.90;;;22.60;99.90;;;;;;5075285;28;20286;-74
2023/10/06 12:15:48;;;;;;;1.70;1.60;;;22.10;99.90;;;;;;5071803;28;20215;-74
2023/10/06 12:18:16;;;;;;;4.80;1.95;;;22.20;99.90;;;;;;5077176;28;20203;-73
2023/10/06 12:20:44;;;;;;;3.47;2.25;;;22.70;99.90;;;;;;5074884;28;20207;-73
2023/10/06 12:23:12;;;;;;;3.15;2.08;;;22.60;99.90;;;;;;5080319;28;20202;-75
2023/10/06 12:25:40;;;;;;;2.25;2.00;;;22.90;99.90;;;;;;5071588;28;20231;-74
2023/10/06 12:28:13;;;;;;;2.75;1.80;;;23.30;99.90;;;;;;5071719;28;20199;-72
2023/10/06 12:30:42;;;;;;;3.10;1.50;;;23.20;99.90;;;;;;5079981;28;20191;-72
2023/10/06 12:33:10;;;;;;;2.25;2.05;;;23.70;99.90;;;;;;5071751;28;20210;-73
2023/10/06 12:35:39;;;;;;;2.22;1.85;;;23.90;99.90;;;;;;5071364;28;20234;-73
2023/10/06 12:38:08;;;;;;;3.65;2.38;;;23.70;99.90;;;;;;5063677;28;20203;-72
2023/10/06 12:40:38;;;;;;;1.40;1.30;;;23.10;99.90;;;;;;5079735;28;20230;-73
2023/10/06 12:43:07;;;;;;;2.03;1.55;;;23.20;99.90;;;;;;5071287;28;20222;-72
2023/10/06 12:45:36;;;;;;;2.28;1.90;;;23.30;99.90;;;;;;5079980;28;20219;-73
2023/10/06 12:48:07;;;;;;;2.47;1.50;;;23.30;99.90;;;;;;5074351;28;20671;-73
2023/10/06 12:50:40;;;;;;;3.53;2.22;;;23.50;99.90;;;;;;5075459;28;20201;-71
2023/10/06 12:53:10;;;;;;;3.15;2.42;;;22.90;99.90;;;;;;5063305;28;20226;-72
2023/10/06 12:55:41;;;;;;;2.45;1.98;;;23.10;99.90;;;;;;5071329;28;20226;-74
2023/10/06 12:58:14;;;;;;;3.35;1.60;;;23.40;99.90;;;;;;5063379;28;20203;-73
2023/10/06 13:00:44;;;;;;;3.55;1.75;;;23.90;99.90;;;;;;5079517;28;20221;-75
2023/10/06 13:03:16;;;;;;;1.52;1.42;;;23.60;99.90;;;;;;5083234;28;20213;-73
2023/10/06 13:05:45;;;;;;;4.80;1.90;;;23.80;99.90;;;;;;5074496;28;20226;-74
2023/10/06 13:08:16;;;;;;;1.55;1.27;;;23.40;99.90;;;;;;5075275;28;20614;-73
2023/10/06 13:10:45;;;;;;;2.50;1.60;;;22.90;99.90;;;;;;5082677;28;20205;-72
2023/10/06 13:13:16;;;;;;;1.50;1.20;;;22.80;99.90;;;;;;5070972;28;20268;-72
2023/10/06 13:15:46;;;;;;;3.55;1.83;;;22.60;99.90;;;;;;5079465;28;20597;-73
2023/10/06 13:18:16;;;;;;;2.03;1.65;;;22.40;99.90;;;;;;5078612;28;20282;-72
2023/10/06 13:20:45;;;;;;;3.00;1.92;;;22.20;99.90;;;;;;5070441;28;20219;-73
2023/10/06 13:23:14;;;;;;;3.97;1.65;;;22.20;99.90;;;;;;5079300;28;20206;-74
2023/10/06 13:25:45;;;;;;;2.55;1.35;;;22.30;99.90;;;;;;5070756;28;20292;-73
2023/10/06 13:28:16;;;;;;;5.00;1.50;;;22.10;99.90;;;;;;5062944;28;20665;-73
2023/10/06 13:30:46;;;;;;;1.80;1.65;;;21.70;99.90;;;;;;5070922;28;20206;-73
2023/10/06 13:33:15;;;;;;;2.20;1.30;;;21.40;99.90;;;;;;5062940;28;20199;-73
2023/10/06 13:35:44;;;;;;;1.88;1.63;;;21.30;99.90;;;;;;5070615;28;20762;-72
2023/10/06 13:38:12;;;;;;;2.35;1.75;;;21.20;99.90;;;;;;5067713;28;20198;-72
2023/10/06 13:40:44;;;;;;;4.43;1.70;;;21.10;99.90;;;;;;5075063;28;20229;-73